createdAt,value
2023-02-17T00:02:34.277Z,101969.63
2023-02-17T00:07:32.085Z,101966.06
2023-02-17T00:12:28.880Z,101978.97
2023-02-17T00:17:26.245Z,101962.34
2023-02-17T00:22:23.762Z,101954.69
2023-02-17T00:27:20.379Z,101946.72
2023-02-17T00:32:17.125Z,101939.13
2023-02-17T00:37:13.858Z,101926.28
2023-02-17T00:42:11.191Z,101921.25
2023-02-17T00:47:07.829Z,101924.13
2023-02-17T00:52:04.493Z,101920.75
2023-02-17T00:57:03.240Z,101923.31
2023-02-17T01:02:02.773Z,101918.19
2023-02-17T01:06:59.467Z,101911.28
2023-02-17T01:11:56.292Z,101901.84
2023-02-17T01:16:54.468Z,101890.66
2023-02-17T01:21:52.454Z,101878.41
2023-02-17T01:26:49.224Z,101877.47
2023-02-17T01:31:46.070Z,101877.19
2023-02-17T01:36:42.885Z,101871.03
2023-02-17T01:41:43.342Z,101862.19
2023-02-17T01:46:40.854Z,101861.59
2023-02-17T01:51:38.565Z,101861.66
2023-02-17T01:56:36.786Z,101858.38
2023-02-17T02:01:35.346Z,101855.56
2023-02-17T02:06:34.522Z,101846.78
2023-02-17T02:11:31.289Z,101846.91
2023-02-17T02:16:32.582Z,101840.00
2023-02-17T02:21:49.465Z,101834.09
2023-02-17T02:27:04.989Z,101834.06
2023-02-17T02:32:09.527Z,101835.75
2023-02-17T02:37:09.803Z,101821.72
2023-02-17T02:42:08.991Z,101806.91
2023-02-17T02:47:10.414Z,101813.97
2023-02-17T02:52:13.795Z,101810.50
2023-02-17T02:57:16.967Z,101813.94
2023-02-17T03:02:19.361Z,101816.59
2023-02-17T03:07:21.027Z,101816.59
2023-02-17T03:12:18.630Z,101824.56
2023-02-17T03:17:15.478Z,101835.66
2023-02-17T03:22:15.198Z,101844.19
2023-02-17T03:27:13.080Z,101846.00
2023-02-17T03:32:09.993Z,101846.81
2023-02-17T03:37:06.818Z,101855.34
2023-02-17T03:42:03.455Z,101845.78
2023-02-17T03:47:00.829Z,101840.41
2023-02-17T03:51:59.250Z,101836.22
2023-02-17T03:56:55.954Z,101838.16
2023-02-17T04:01:52.647Z,101839.09
2023-02-17T04:06:53.194Z,101843.44
2023-02-17T04:11:49.992Z,101837.06
2023-02-17T04:16:46.843Z,101833.56
2023-02-17T04:21:44.733Z,101808.50
2023-02-17T04:26:45.274Z,101832.09
2023-02-17T04:31:42.171Z,101839.22
2023-02-17T04:36:42.863Z,101840.94
2023-02-17T04:41:40.858Z,101847.94
2023-02-17T04:46:38.230Z,101859.25
2023-02-17T04:51:34.965Z,101840.19
2023-02-17T04:56:34.994Z,101850.66
2023-02-17T05:01:31.775Z,101854.03
2023-02-17T05:06:29.051Z,101855.69
2023-02-17T05:11:25.759Z,101859.22
2023-02-17T05:16:22.556Z,101857.44
2023-02-17T05:21:19.374Z,101859.25
2023-02-17T05:26:16.882Z,101871.38
2023-02-17T05:31:13.834Z,101868.03
2023-02-17T05:36:11.426Z,101859.31
2023-02-17T05:41:08.047Z,101882.88
2023-02-17T05:46:06.232Z,101896.78
2023-02-17T05:51:05.891Z,101890.69
2023-02-17T05:56:02.996Z,101895.97
2023-02-17T06:00:59.749Z,101898.53
2023-02-17T06:05:57.358Z,101906.38
2023-02-17T06:10:54.313Z,101899.38
2023-02-17T06:15:51.007Z,101908.13
2023-02-17T06:20:47.778Z,101920.16
2023-02-17T06:25:45.848Z,101926.25
2023-02-17T06:30:42.795Z,101930.56
2023-02-17T06:35:47.934Z,101930.66
2023-02-17T06:40:45.456Z,101929.91
2023-02-17T06:45:42.251Z,101922.91
2023-02-17T06:50:39.337Z,101899.47
2023-02-17T06:55:37.971Z,101909.97
2023-02-17T07:00:36.519Z,101925.63
2023-02-17T07:05:39.476Z,101937.78
2023-02-17T07:10:37.121Z,101944.72
2023-02-17T07:15:34.071Z,101944.78
2023-02-17T07:20:31.994Z,101958.63
2023-02-17T07:25:29.019Z,101953.38
2023-02-17T07:30:26.092Z,101951.72
2023-02-17T07:35:30.802Z,101964.72
2023-02-17T07:40:34.002Z,101967.44
2023-02-17T07:45:38.151Z,101970.03
2023-02-17T07:50:41.116Z,101970.91
2023-02-17T08:02:25.154Z,101977.84
2023-02-17T08:07:41.685Z,101969.97
2023-02-17T08:13:16.668Z,101966.59
2023-02-17T08:18:37.631Z,101966.63
2023-02-17T08:24:26.359Z,101967.50
2023-02-17T08:29:35.604Z,101969.28
2023-02-17T08:36:15.497Z,101968.44
2023-02-17T08:42:54.044Z,101969.31
2023-02-17T08:47:09.286Z,101959.75
2023-02-17T08:58:36.460Z,101981.44
2023-02-17T09:04:34.571Z,101978.75
2023-02-17T09:10:32.568Z,101976.88
2023-02-17T09:28:50.995Z,101971.44
2023-02-17T09:34:53.395Z,101980.16
2023-02-17T09:46:22.411Z,101962.09
2023-02-17T09:51:27.405Z,101962.84
2023-02-17T09:56:30.352Z,101957.41
2023-02-17T10:01:29.754Z,101948.44
2023-02-17T10:06:29.791Z,101937.97
2023-02-17T10:11:30.446Z,101938.69
2023-02-17T10:16:34.010Z,101932.38
2023-02-17T10:21:33.129Z,101931.00
2023-02-17T10:26:39.566Z,101921.34
2023-02-17T10:31:43.017Z,101905.59
2023-02-17T10:36:52.029Z,101905.28
2023-02-17T10:41:51.669Z,101896.38
2023-02-17T10:46:52.016Z,101902.81
2023-02-17T10:51:56.047Z,101871.50
2023-02-17T10:56:55.352Z,101881.06
2023-02-17T11:01:52.331Z,101894.75
2023-02-17T11:06:50.066Z,101897.13
2023-02-17T11:11:53.182Z,101885.09
2023-02-17T11:16:54.630Z,101887.53
2023-02-17T11:21:51.939Z,101891.03
2023-02-17T11:26:55.917Z,101881.28
2023-02-17T11:32:08.940Z,101874.81
2023-02-17T11:37:21.013Z,101864.00
2023-02-17T11:42:46.611Z,101850.50
2023-02-17T11:48:09.929Z,101846.69
2023-02-17T11:53:21.420Z,101838.78
2023-02-17T11:58:28.565Z,101835.81
2023-02-17T12:03:54.324Z,101832.25
2023-02-17T12:09:00.154Z,101820.22
2023-02-17T12:14:15.682Z,101833.66
2023-02-17T12:19:36.092Z,101822.41
2023-02-17T12:24:56.376Z,101807.41
2023-02-17T12:30:03.916Z,101809.25
2023-02-17T12:35:04.856Z,101816.19
2023-02-17T12:40:02.893Z,101817.31
2023-02-17T12:45:02.528Z,101806.91
2023-02-17T12:50:04.045Z,101815.19
2023-02-17T12:55:05.851Z,101811.19
2023-02-17T13:00:04.964Z,101819.75
2023-02-17T13:05:04.889Z,101807.22
2023-02-17T13:10:02.192Z,101798.34
2023-02-17T13:15:00.036Z,101793.72
2023-02-17T13:20:03.056Z,101788.78
2023-02-17T13:25:02.931Z,101791.50
2023-02-17T13:30:00.498Z,101790.88
2023-02-17T13:35:05.468Z,101793.66
2023-02-17T13:40:23.770Z,101800.41
2023-02-17T13:45:23.432Z,101798.78
2023-02-17T13:50:28.033Z,101796.75
2023-02-17T13:55:26.146Z,101795.75
2023-02-17T14:00:26.156Z,101809.44
2023-02-17T14:05:26.349Z,101801.28
2023-02-17T14:10:24.424Z,101812.53
2023-02-17T14:15:25.094Z,101814.06
2023-02-17T14:20:25.186Z,101811.09
2023-02-17T14:25:26.604Z,101807.88
2023-02-17T14:30:31.291Z,101804.47
2023-02-17T14:35:29.136Z,101807.13
2023-02-17T14:40:27.535Z,101811.75
2023-02-17T14:45:24.304Z,101803.09
2023-02-17T14:50:21.796Z,101796.16
2023-02-17T14:55:25.278Z,101792.63
2023-02-17T15:00:22.221Z,101797.03
2023-02-17T15:05:19.249Z,101795.97
2023-02-17T15:10:19.123Z,101773.94
2023-02-17T15:15:18.138Z,101802.75
2023-02-17T15:20:31.940Z,101796.47
2023-02-17T15:25:31.721Z,101801.84
2023-02-17T15:30:28.651Z,101798.69
2023-02-17T15:35:27.130Z,101796.56
2023-02-17T15:40:24.933Z,101812.00
2023-02-17T15:45:27.867Z,101801.97
2023-02-17T15:50:30.580Z,101819.56
2023-02-17T15:55:28.413Z,101822.38
2023-02-17T16:00:30.506Z,101818.81
2023-02-17T16:05:28.753Z,101808.44
2023-02-17T16:10:26.947Z,101816.81
2023-02-17T16:15:28.296Z,101824.22
2023-02-17T16:20:44.555Z,101827.59
2023-02-17T16:25:42.817Z,101823.09
2023-02-17T16:30:41.348Z,101829.97
2023-02-17T16:35:38.169Z,101832.97
2023-02-17T16:40:46.631Z,101834.06
2023-02-17T16:45:51.313Z,101837.94
2023-02-17T16:51:14.444Z,101845.53
2023-02-17T16:56:26.675Z,101851.03
2023-02-17T17:01:25.379Z,101842.69
2023-02-17T17:06:25.030Z,101835.78
2023-02-17T17:11:25.579Z,101831.28
2023-02-17T17:16:23.352Z,101830.53
2023-02-17T17:21:21.050Z,101831.09
2023-02-17T17:26:24.615Z,101834.53
2023-02-17T17:31:23.594Z,101846.78
2023-02-17T17:36:23.972Z,101838.16
2023-02-17T17:41:23.432Z,101851.63
2023-02-17T17:46:25.771Z,101863.09
2023-02-17T17:51:25.543Z,101870.41
2023-02-17T17:56:23.331Z,101870.88
2023-02-17T18:01:20.986Z,101873.38
2023-02-17T18:06:19.458Z,101871.31
2023-02-17T18:11:18.582Z,101866.84
2023-02-17T18:16:16.053Z,101868.16
2023-02-17T18:21:35.425Z,101870.66
2023-02-17T18:26:33.874Z,101865.91
2023-02-17T18:31:33.788Z,101866.72
2023-02-17T18:36:30.766Z,101859.56
2023-02-17T18:41:28.315Z,101863.66
2023-02-17T18:46:31.014Z,101845.84
2023-02-17T18:51:27.810Z,101868.16
2023-02-17T18:56:28.695Z,101867.16
2023-02-17T19:01:27.520Z,101858.38
2023-02-17T19:06:24.903Z,101857.72
2023-02-17T19:11:22.280Z,101864.44
2023-02-17T19:16:20.200Z,101864.31
2023-02-17T19:21:17.899Z,101865.22
2023-02-17T19:26:15.167Z,101859.75
2023-02-17T19:31:15.514Z,101863.66
2023-02-17T19:36:13.356Z,101853.13
2023-02-17T19:41:11.794Z,101848.06
2023-02-17T19:46:13.279Z,101839.34
2023-02-17T19:51:13.612Z,101835.22
2023-02-17T19:56:12.755Z,101842.41
2023-02-17T20:01:10.639Z,101847.22
2023-02-17T20:06:08.457Z,101843.84
2023-02-17T20:11:09.364Z,101850.25
2023-02-17T20:16:10.364Z,101854.75
2023-02-17T20:21:08.398Z,101848.13
2023-02-17T20:26:06.542Z,101831.66
2023-02-17T20:31:04.226Z,101831.81
2023-02-17T20:36:01.855Z,101838.78
2023-02-17T20:40:58.539Z,101833.50
2023-02-17T20:45:55.585Z,101831.06
2023-02-17T20:50:55.273Z,101822.25
2023-02-17T20:55:58.942Z,101819.50
2023-02-17T21:00:55.892Z,101829.06
2023-02-17T21:05:52.756Z,101822.19
2023-02-17T21:10:53.586Z,101825.09
2023-02-17T21:15:55.881Z,101820.75
2023-02-17T21:20:52.605Z,101817.03
2023-02-17T21:25:49.302Z,101819.59
2023-02-17T21:30:48.826Z,101788.44
2023-02-17T21:35:46.254Z,101799.56
2023-02-17T21:40:43.152Z,101801.84
2023-02-17T21:45:39.801Z,101798.53
2023-02-17T21:50:36.362Z,101797.81
2023-02-17T21:55:34.406Z,101789.84
2023-02-17T22:00:31.109Z,101800.97
2023-02-17T22:05:29.864Z,101804.66
2023-02-17T22:10:26.455Z,101796.88
2023-02-17T22:15:23.964Z,101793.38
2023-02-17T22:20:21.000Z,101785.66
2023-02-17T22:25:20.026Z,101771.56
2023-02-17T22:30:17.390Z,101766.13
2023-02-17T22:35:14.750Z,101740.28
2023-02-17T22:40:14.209Z,101746.84
2023-02-17T22:45:11.224Z,101746.63
2023-02-17T22:50:10.658Z,101746.66
2023-02-17T22:55:08.184Z,101739.56
2023-02-17T23:00:05.912Z,101739.41
2023-02-17T23:05:02.721Z,101737.72
2023-02-17T23:09:59.255Z,101732.34
2023-02-17T23:14:56.474Z,101733.22
2023-02-17T23:19:53.111Z,101732.56
2023-02-17T23:24:53.096Z,101744.00
2023-02-17T23:29:49.791Z,101738.69
2023-02-17T23:34:47.404Z,101734.53
2023-02-17T23:39:45.620Z,101735.56
2023-02-17T23:44:42.544Z,101724.75
2023-02-17T23:49:39.278Z,101715.22
2023-02-17T23:54:37.412Z,101730.00
2023-02-17T23:59:37.650Z,101715.34
